createdAt,value
2018-03-16T00:01:28.625Z,62.93
2018-03-16T00:03:57.812Z,62.65
2018-03-16T00:06:27.691Z,62.49
2018-03-16T00:08:57.025Z,62.62
2018-03-16T00:11:26.083Z,62.73
2018-03-16T00:13:55.470Z,62.93
2018-03-16T00:16:24.616Z,62.91
2018-03-16T00:18:54.074Z,62.83
2018-03-16T00:21:23.914Z,62.89
2018-03-16T00:23:53.093Z,62.89
2018-03-16T00:26:22.379Z,62.94
2018-03-16T00:28:51.422Z,62.95
2018-03-16T00:31:21.687Z,62.85
2018-03-16T00:33:50.801Z,62.89
2018-03-16T00:36:20.738Z,63.04
2018-03-16T00:38:50.020Z,62.81
2018-03-16T00:41:19.858Z,62.41
2018-03-16T00:43:48.885Z,62.57
2018-03-16T00:46:19.334Z,62.59
2018-03-16T00:48:48.954Z,62.55
2018-03-16T00:51:18.655Z,62.50
2018-03-16T00:53:48.045Z,62.25
2018-03-16T00:56:18.557Z,62.02
2018-03-16T00:58:48.044Z,60.94
2018-03-16T01:01:17.209Z,60.47
2018-03-16T01:03:46.764Z,60.66
2018-03-16T01:06:17.031Z,60.50
2018-03-16T01:08:47.304Z,60.61
2018-03-16T01:11:16.426Z,60.72
2018-03-16T01:13:45.609Z,59.93
2018-03-16T01:16:14.761Z,60.47
2018-03-16T01:18:44.855Z,59.90
2018-03-16T01:21:14.466Z,60.17
2018-03-16T01:23:43.585Z,60.33
2018-03-16T01:26:14.348Z,60.04
2018-03-16T01:28:44.279Z,60.50
2018-03-16T01:31:13.445Z,60.09
2018-03-16T01:33:43.873Z,60.09
2018-03-16T01:36:13.141Z,59.90
2018-03-16T01:38:42.986Z,59.98
2018-03-16T01:41:12.600Z,59.52
2018-03-16T01:43:42.104Z,60.20
2018-03-16T01:46:12.742Z,60.12
2018-03-16T01:48:43.030Z,60.47
2018-03-16T01:51:12.170Z,60.68
2018-03-16T01:53:41.821Z,60.87
2018-03-16T01:56:11.101Z,61.08
2018-03-16T01:58:40.276Z,60.58
2018-03-16T02:01:09.880Z,60.43
2018-03-16T02:03:40.018Z,60.31
2018-03-16T02:06:10.430Z,60.34
2018-03-16T02:08:39.980Z,60.56
2018-03-16T02:11:10.543Z,60.54
2018-03-16T02:13:39.768Z,60.57
2018-03-16T02:16:08.973Z,60.35
2018-03-16T02:18:38.001Z,60.07
2018-03-16T02:21:07.328Z,60.29
2018-03-16T02:23:36.357Z,60.37
2018-03-16T02:26:07.143Z,60.50
2018-03-16T02:28:36.378Z,60.40
2018-03-16T02:31:07.261Z,60.57
2018-03-16T02:33:36.988Z,60.74
2018-03-16T02:36:06.687Z,60.47
2018-03-16T02:38:35.870Z,60.54
2018-03-16T02:41:05.143Z,60.56
2018-03-16T02:43:34.166Z,60.89
2018-03-16T02:46:03.978Z,61.02
2018-03-16T02:48:33.463Z,61.14
2018-03-16T02:51:03.374Z,60.86
2018-03-16T02:53:32.468Z,60.65
2018-03-16T02:56:01.596Z,59.89
2018-03-16T02:58:30.700Z,60.33
2018-03-16T03:01:00.815Z,60.30
2018-03-16T03:03:30.993Z,60.31
2018-03-16T03:06:00.111Z,60.27
2018-03-16T03:08:29.208Z,60.26
2018-03-16T03:10:58.230Z,60.37
2018-03-16T03:13:27.914Z,60.31
2018-03-16T03:15:57.675Z,60.10
2018-03-16T03:18:27.133Z,60.35
2018-03-16T03:20:57.253Z,60.52
2018-03-16T03:23:26.885Z,60.20
2018-03-16T03:25:56.831Z,60.19
2018-03-16T03:28:25.904Z,60.28
2018-03-16T03:30:55.039Z,59.21
2018-03-16T03:33:24.609Z,58.98
2018-03-16T03:35:53.985Z,59.05
2018-03-16T03:38:23.018Z,58.50
2018-03-16T03:40:52.109Z,59.01
2018-03-16T03:43:21.320Z,59.25
2018-03-16T03:45:51.025Z,59.68
2018-03-16T03:48:20.220Z,59.53
2018-03-16T03:50:49.604Z,59.05
2018-03-16T03:53:19.512Z,59.09
2018-03-16T03:55:49.878Z,59.26
2018-03-16T03:58:19.051Z,58.27
2018-03-16T04:00:49.671Z,58.51
2018-03-16T04:03:19.309Z,58.41
2018-03-16T04:05:49.205Z,58.26
2018-03-16T04:08:19.242Z,58.58
2018-03-16T04:10:48.760Z,58.10
2018-03-16T04:13:18.238Z,57.96
2018-03-16T04:15:47.334Z,58.10
2018-03-16T04:18:16.918Z,58.33
2018-03-16T04:20:46.044Z,58.85
2018-03-16T04:23:15.695Z,58.78
2018-03-16T04:25:45.136Z,58.56
2018-03-16T04:28:14.257Z,58.91
2018-03-16T04:30:44.004Z,58.20
2018-03-16T04:33:14.332Z,58.32
2018-03-16T04:35:43.356Z,57.79
2018-03-16T04:38:12.539Z,57.89
2018-03-16T04:40:41.586Z,57.98
2018-03-16T04:43:10.920Z,58.23
2018-03-16T04:45:39.987Z,58.73
2018-03-16T04:48:09.961Z,58.77
2018-03-16T04:50:39.097Z,58.68
2018-03-16T04:53:08.195Z,58.74
2018-03-16T04:55:38.212Z,58.03
2018-03-16T04:58:07.724Z,57.89
2018-03-16T05:00:37.446Z,58.21
2018-03-16T05:03:07.315Z,58.36
2018-03-16T05:05:36.443Z,57.98
2018-03-16T05:08:06.491Z,58.58
2018-03-16T05:10:36.406Z,58.85
2018-03-16T05:13:05.446Z,58.79
2018-03-16T05:15:34.474Z,58.70
2018-03-16T05:18:03.810Z,58.66
2018-03-16T05:20:33.353Z,58.83
2018-03-16T05:23:02.801Z,59.15
2018-03-16T05:25:31.845Z,58.63
2018-03-16T05:28:01.140Z,57.87
2018-03-16T05:30:30.932Z,57.72
2018-03-16T05:33:00.401Z,57.99
2018-03-16T05:35:29.748Z,57.94
2018-03-16T05:37:58.908Z,57.78
2018-03-16T05:40:29.531Z,57.45
2018-03-16T05:42:58.812Z,57.67
2018-03-16T05:45:28.080Z,58.11
2018-03-16T05:47:57.125Z,57.73
2018-03-16T05:50:26.654Z,57.95
2018-03-16T05:52:55.986Z,57.98
2018-03-16T05:55:25.301Z,57.61
2018-03-16T05:57:54.899Z,58.08
2018-03-16T06:00:24.776Z,58.11
2018-03-16T06:02:53.853Z,57.24
2018-03-16T06:05:24.030Z,56.71
2018-03-16T06:07:53.509Z,57.49
2018-03-16T06:10:22.658Z,57.85
2018-03-16T06:12:52.010Z,58.83
2018-03-16T06:15:21.828Z,59.51
2018-03-16T06:17:51.748Z,59.70
2018-03-16T06:20:21.173Z,59.91
2018-03-16T06:22:50.793Z,59.74
2018-03-16T06:25:20.160Z,59.48
2018-03-16T06:27:50.022Z,59.68
2018-03-16T06:30:19.102Z,59.75
2018-03-16T06:32:48.139Z,59.88
2018-03-16T06:35:18.018Z,59.96
2018-03-16T06:37:47.978Z,59.82
2018-03-16T06:40:17.095Z,59.77
2018-03-16T06:42:46.530Z,59.53
2018-03-16T06:45:16.396Z,59.43
2018-03-16T06:47:46.059Z,59.53
2018-03-16T06:50:15.937Z,59.25
2018-03-16T06:52:45.662Z,59.03
2018-03-16T06:55:15.156Z,58.25
2018-03-16T06:57:44.607Z,57.53
2018-03-16T07:00:13.642Z,57.22
2018-03-16T07:02:44.491Z,57.29
2018-03-16T07:05:13.990Z,57.05
2018-03-16T07:07:43.122Z,55.77
2018-03-16T07:10:13.390Z,56.25
2018-03-16T07:12:42.453Z,55.94
2018-03-16T07:15:24.862Z,55.86
2018-03-16T07:17:55.615Z,55.85
2018-03-16T07:20:24.776Z,56.18
2018-03-16T07:22:54.121Z,55.27
2018-03-16T07:25:23.435Z,55.53
2018-03-16T07:27:52.725Z,55.24
2018-03-16T07:30:21.807Z,55.73
2018-03-16T07:32:51.185Z,56.20
2018-03-16T07:35:20.526Z,55.93
2018-03-16T07:37:50.017Z,55.85
2018-03-16T07:40:19.094Z,55.97
2018-03-16T07:42:48.203Z,56.28
2018-03-16T07:45:17.765Z,55.75
2018-03-16T07:47:47.566Z,54.91
2018-03-16T07:50:17.033Z,55.46
2018-03-16T07:52:46.085Z,54.94
2018-03-16T07:55:15.177Z,55.12
2018-03-16T07:57:44.232Z,55.59
2018-03-16T08:00:14.983Z,55.51
2018-03-16T08:02:44.377Z,55.43
2018-03-16T08:05:13.444Z,54.10
2018-03-16T08:07:42.480Z,54.20
2018-03-16T08:10:11.514Z,55.02
2018-03-16T08:12:40.536Z,54.52
2018-03-16T08:15:10.131Z,53.66
2018-03-16T08:17:39.572Z,54.63
2018-03-16T08:20:09.378Z,54.41
2018-03-16T08:22:38.409Z,53.54
2018-03-16T08:25:08.016Z,54.52
2018-03-16T08:27:38.198Z,53.68
2018-03-16T08:30:08.384Z,53.67
2018-03-16T08:32:38.133Z,52.81
2018-03-16T08:35:08.003Z,53.36
2018-03-16T08:37:37.411Z,53.48
2018-03-16T08:40:06.557Z,53.03
2018-03-16T08:42:35.595Z,52.90
2018-03-16T08:45:05.023Z,52.75
2018-03-16T08:47:34.146Z,52.05
2018-03-16T08:50:03.798Z,51.45
2018-03-16T08:52:33.320Z,52.56
2018-03-16T08:55:02.994Z,52.28
2018-03-16T08:57:33.195Z,52.46
2018-03-16T09:00:02.450Z,52.74
2018-03-16T09:02:33.787Z,52.78
2018-03-16T09:05:03.088Z,52.96
2018-03-16T09:07:32.821Z,52.82
2018-03-16T09:10:02.593Z,51.45
2018-03-16T09:12:32.059Z,51.79
2018-03-16T09:15:01.465Z,50.56
2018-03-16T09:17:31.026Z,51.77
2018-03-16T09:20:01.305Z,51.49
2018-03-16T09:22:30.604Z,50.97
2018-03-16T09:25:00.455Z,51.33
2018-03-16T09:27:30.354Z,50.66
2018-03-16T09:29:59.406Z,49.18
2018-03-16T09:32:28.469Z,50.80
2018-03-16T09:34:58.464Z,50.49
2018-03-16T09:37:27.496Z,50.64
2018-03-16T09:39:57.276Z,50.87
2018-03-16T09:42:26.410Z,51.77
2018-03-16T09:44:55.544Z,51.13
2018-03-16T09:47:25.136Z,51.10
2018-03-16T09:49:54.383Z,49.94
2018-03-16T09:52:23.501Z,50.62
2018-03-16T09:55:05.444Z,50.31
2018-03-16T09:57:35.622Z,50.79
2018-03-16T10:00:04.686Z,50.81
2018-03-16T10:02:33.781Z,51.45
2018-03-16T10:05:02.883Z,49.27
2018-03-16T10:07:32.966Z,49.46
2018-03-16T10:10:02.241Z,49.84
2018-03-16T10:12:32.478Z,50.47
2018-03-16T10:15:01.950Z,50.46
2018-03-16T10:17:31.053Z,49.53
2018-03-16T10:20:00.087Z,50.04
2018-03-16T10:22:29.236Z,49.78
2018-03-16T10:24:58.644Z,50.19
2018-03-16T10:27:28.201Z,50.44
2018-03-16T10:29:58.163Z,50.06
2018-03-16T10:32:27.263Z,50.08
2018-03-16T10:34:56.287Z,49.97
2018-03-16T10:37:25.433Z,49.72
2018-03-16T10:39:54.556Z,50.12
2018-03-16T10:42:24.117Z,49.92
2018-03-16T10:44:53.660Z,50.25
2018-03-16T10:47:22.689Z,50.53
2018-03-16T10:49:52.313Z,50.79
2018-03-16T10:52:22.667Z,51.20
2018-03-16T10:54:52.786Z,49.46
2018-03-16T10:57:22.437Z,49.43
2018-03-16T10:59:51.522Z,48.84
2018-03-16T11:02:20.625Z,48.72
2018-03-16T11:04:55.292Z,48.69
2018-03-16T11:07:43.183Z,49.48
2018-03-16T11:10:23.993Z,48.36
2018-03-16T11:12:54.754Z,48.38
2018-03-16T11:15:23.898Z,47.98
2018-03-16T11:17:52.990Z,48.06
2018-03-16T11:20:22.130Z,47.93
2018-03-16T11:22:51.948Z,47.88
2018-03-16T11:25:21.950Z,47.64
2018-03-16T11:27:51.953Z,48.42
2018-03-16T11:30:21.850Z,47.81
2018-03-16T11:32:50.961Z,47.75
2018-03-16T11:35:19.985Z,48.65
2018-03-16T11:37:49.647Z,48.76
2018-03-16T11:40:18.730Z,48.92
2018-03-16T11:42:48.506Z,47.24
2018-03-16T11:45:18.270Z,47.57
2018-03-16T11:47:47.628Z,47.46
2018-03-16T11:50:16.781Z,48.10
2018-03-16T11:52:45.828Z,48.37
2018-03-16T11:55:15.681Z,48.03
2018-03-16T11:57:44.819Z,47.73
2018-03-16T12:00:13.869Z,47.63
2018-03-16T12:02:44.165Z,46.20
2018-03-16T12:05:13.286Z,46.73
2018-03-16T12:07:42.798Z,46.88
2018-03-16T12:10:12.286Z,47.35
2018-03-16T12:12:42.001Z,46.68
2018-03-16T12:15:12.739Z,47.09
2018-03-16T12:17:41.889Z,47.63
2018-03-16T12:20:11.706Z,45.95
2018-03-16T12:22:40.743Z,46.56
2018-03-16T12:25:10.132Z,46.96
2018-03-16T12:27:55.944Z,46.98
2018-03-16T12:30:25.576Z,48.04
2018-03-16T12:33:01.219Z,47.02
2018-03-16T12:35:31.838Z,47.28
2018-03-16T12:38:01.391Z,47.80
2018-03-16T12:40:31.129Z,47.17
2018-03-16T12:43:00.652Z,47.52
2018-03-16T12:45:29.678Z,47.59
2018-03-16T12:47:58.713Z,47.61
2018-03-16T12:50:28.690Z,47.93
2018-03-16T12:52:57.725Z,47.08
2018-03-16T12:55:26.767Z,46.43
2018-03-16T12:57:56.096Z,47.51
2018-03-16T13:00:25.130Z,47.88
2018-03-16T13:02:54.173Z,47.25
2018-03-16T13:05:23.345Z,47.00
2018-03-16T13:07:52.569Z,47.37
2018-03-16T13:10:21.577Z,47.05
2018-03-16T13:12:51.006Z,48.25
2018-03-16T13:15:20.057Z,48.38
2018-03-16T13:17:49.104Z,47.53
2018-03-16T13:20:18.150Z,46.01
2018-03-16T13:22:47.176Z,44.10
2018-03-16T13:25:16.307Z,45.68
2018-03-16T13:27:46.854Z,46.35
2018-03-16T13:30:15.928Z,46.84
2018-03-16T13:32:44.953Z,45.93
2018-03-16T13:35:13.997Z,46.08
2018-03-16T13:37:43.022Z,45.60
2018-03-16T13:40:12.357Z,45.98
2018-03-16T13:42:43.008Z,46.27
2018-03-16T13:45:12.032Z,46.46
2018-03-16T13:47:41.535Z,46.49
2018-03-16T13:50:10.563Z,45.65
2018-03-16T13:52:40.095Z,46.63
2018-03-16T13:55:09.122Z,46.64
2018-03-16T13:57:38.554Z,46.34
2018-03-16T14:00:07.586Z,45.37
2018-03-16T14:02:37.671Z,46.00
2018-03-16T14:05:06.715Z,46.04
2018-03-16T14:07:35.766Z,45.66
2018-03-16T14:10:04.798Z,46.18
2018-03-16T14:12:33.821Z,45.19
2018-03-16T14:15:02.845Z,44.16
2018-03-16T14:17:31.877Z,44.27
2018-03-16T14:20:00.909Z,45.75
2018-03-16T14:22:29.942Z,45.05
2018-03-16T14:24:59.174Z,46.39
2018-03-16T14:27:28.202Z,46.31
2018-03-16T14:29:57.640Z,46.26
2018-03-16T14:32:27.045Z,46.85
2018-03-16T14:34:56.144Z,46.55
2018-03-16T14:37:25.175Z,45.80
2018-03-16T14:39:54.422Z,44.15
2018-03-16T14:42:23.621Z,43.29
2018-03-16T14:44:52.661Z,44.84
2018-03-16T14:47:21.726Z,45.26
2018-03-16T14:49:50.755Z,45.22
2018-03-16T14:52:20.116Z,45.55
2018-03-16T14:54:49.294Z,44.80
2018-03-16T14:57:18.670Z,44.81
2018-03-16T14:59:47.725Z,45.42
2018-03-16T15:02:17.648Z,45.60
2018-03-16T15:04:46.677Z,46.47
2018-03-16T15:07:16.150Z,45.85
2018-03-16T15:09:45.274Z,46.24
2018-03-16T15:12:14.301Z,46.79
2018-03-16T15:14:43.403Z,46.47
2018-03-16T15:17:12.467Z,45.78
2018-03-16T15:19:41.844Z,45.86
2018-03-16T15:22:11.186Z,45.90
2018-03-16T15:24:40.218Z,46.21
2018-03-16T15:27:09.327Z,46.74
2018-03-16T15:29:38.545Z,46.78
2018-03-16T15:32:07.660Z,46.44
2018-03-16T15:34:36.905Z,46.12
2018-03-16T15:37:05.993Z,45.10
2018-03-16T15:39:35.069Z,44.74
2018-03-16T15:42:04.340Z,45.31
2018-03-16T15:44:33.586Z,45.38
2018-03-16T15:47:02.707Z,44.72
2018-03-16T15:49:31.814Z,44.20
2018-03-16T15:52:00.914Z,44.56
2018-03-16T15:54:30.232Z,45.27
2018-03-16T15:56:59.736Z,45.28
2018-03-16T15:59:28.844Z,45.42
2018-03-16T16:01:57.982Z,44.66
2018-03-16T16:04:27.023Z,44.95
2018-03-16T16:06:56.475Z,45.37
2018-03-16T16:09:25.552Z,44.80
2018-03-16T16:11:54.721Z,44.48
2018-03-16T16:14:23.767Z,45.04
2018-03-16T16:16:52.822Z,45.01
2018-03-16T16:19:22.342Z,45.33
2018-03-16T16:21:51.394Z,46.23
2018-03-16T16:24:20.421Z,46.29
2018-03-16T16:26:49.858Z,46.36
2018-03-16T16:29:18.897Z,47.34
2018-03-16T16:31:47.924Z,46.98
2018-03-16T16:34:16.961Z,46.80
2018-03-16T16:36:46.007Z,46.60
2018-03-16T16:39:15.097Z,46.72
2018-03-16T16:41:44.125Z,46.59
2018-03-16T16:44:13.161Z,46.45
2018-03-16T16:46:42.202Z,46.40
2018-03-16T16:49:11.232Z,46.91
2018-03-16T16:51:41.469Z,47.00
2018-03-16T16:54:10.517Z,47.06
2018-03-16T16:56:39.591Z,47.59
2018-03-16T16:59:08.908Z,47.18
2018-03-16T17:01:37.941Z,48.06
2018-03-16T17:04:06.984Z,47.06
2018-03-16T17:06:36.014Z,46.27
2018-03-16T17:09:05.105Z,45.42
2018-03-16T17:11:34.510Z,45.12
2018-03-16T17:14:03.565Z,45.54
2018-03-16T17:16:33.173Z,45.79
2018-03-16T17:19:02.241Z,46.62
2018-03-16T17:21:31.273Z,46.54
2018-03-16T17:24:00.350Z,45.83
2018-03-16T17:26:29.499Z,46.01
2018-03-16T17:28:58.595Z,46.24
2018-03-16T17:31:28.027Z,46.82
2018-03-16T17:33:58.122Z,47.58
2018-03-16T17:36:27.279Z,48.06
2018-03-16T17:38:56.676Z,48.10
2018-03-16T17:41:27.214Z,47.90
2018-03-16T17:43:56.357Z,47.98
2018-03-16T17:46:25.402Z,47.35
2018-03-16T17:48:54.450Z,47.32
2018-03-16T17:51:25.312Z,47.76
2018-03-16T17:53:55.552Z,46.91
2018-03-16T17:56:24.709Z,45.63
2018-03-16T17:58:53.862Z,45.26
2018-03-16T18:01:23.184Z,45.57
2018-03-16T18:03:53.492Z,45.32
2018-03-16T18:06:22.544Z,46.05
2018-03-16T18:08:52.346Z,45.88
2018-03-16T18:11:21.386Z,45.99
2018-03-16T18:13:50.564Z,46.58
2018-03-16T18:16:20.168Z,46.86
2018-03-16T18:18:49.282Z,47.03
2018-03-16T18:21:22.905Z,46.85
2018-03-16T18:23:52.062Z,46.97
2018-03-16T18:26:21.129Z,46.59
2018-03-16T18:28:50.170Z,46.52
2018-03-16T18:31:19.242Z,47.04
2018-03-16T18:33:48.648Z,46.97
2018-03-16T18:36:17.797Z,47.21
2018-03-16T18:38:46.845Z,46.89
2018-03-16T18:41:15.901Z,47.03
2018-03-16T18:43:44.967Z,46.98
2018-03-16T18:46:14.301Z,47.28
2018-03-16T18:48:43.337Z,47.67
2018-03-16T18:51:12.405Z,47.62
2018-03-16T18:53:41.841Z,47.68
2018-03-16T18:56:10.874Z,47.63
2018-03-16T18:58:40.929Z,47.93
2018-03-16T19:01:12.043Z,47.97
2018-03-16T19:03:41.337Z,48.49
2018-03-16T19:06:11.398Z,49.53
2018-03-16T19:08:40.871Z,49.75
2018-03-16T19:11:10.131Z,51.56
2018-03-16T19:13:39.190Z,52.94
2018-03-16T19:16:08.246Z,51.64
2018-03-16T19:18:37.269Z,51.34
2018-03-16T19:21:06.514Z,51.25
2018-03-16T19:23:38.730Z,51.28
2018-03-16T19:26:07.998Z,51.27
2018-03-16T19:28:39.564Z,51.70
2018-03-16T19:31:08.772Z,50.87
2018-03-16T19:33:37.819Z,51.45
2018-03-16T19:36:07.121Z,51.76
2018-03-16T19:38:39.100Z,51.71
2018-03-16T19:41:08.583Z,52.80
2018-03-16T19:43:38.719Z,52.21
2018-03-16T19:46:07.910Z,51.62
2018-03-16T19:48:37.090Z,50.20
2018-03-16T19:51:06.099Z,49.71
2018-03-16T19:53:35.148Z,49.28
2018-03-16T19:56:04.183Z,49.83
2018-03-16T19:58:34.089Z,49.53
2018-03-16T20:01:03.646Z,49.38
2018-03-16T20:03:32.678Z,50.34
2018-03-16T20:06:01.709Z,49.50
2018-03-16T20:08:30.785Z,49.39
2018-03-16T20:10:59.818Z,49.32
2018-03-16T20:13:28.872Z,50.22
2018-03-16T20:15:58.262Z,50.30
2018-03-16T20:18:27.661Z,49.68
2018-03-16T20:20:56.704Z,49.58
2018-03-16T20:23:25.738Z,49.33
2018-03-16T20:25:54.774Z,49.07
2018-03-16T20:28:23.810Z,48.93
2018-03-16T20:30:52.849Z,48.14
2018-03-16T20:33:21.910Z,48.35
2018-03-16T20:35:50.954Z,48.99
2018-03-16T20:38:20.970Z,48.82
2018-03-16T20:40:50.197Z,49.03
2018-03-16T20:43:20.981Z,48.75
2018-03-16T20:45:54.120Z,49.02
2018-03-16T20:48:23.654Z,49.07
2018-03-16T20:50:53.144Z,49.63
2018-03-16T20:53:22.193Z,49.42
2018-03-16T20:55:51.823Z,48.46
2018-03-16T20:58:21.109Z,48.67
2018-03-16T21:00:51.027Z,49.05
2018-03-16T21:03:20.230Z,48.74
2018-03-16T21:05:49.536Z,48.99
2018-03-16T21:08:18.596Z,48.41
2018-03-16T21:10:47.667Z,46.29
2018-03-16T21:13:16.840Z,46.82
2018-03-16T21:15:45.930Z,46.68
2018-03-16T21:18:15.417Z,46.61
2018-03-16T21:20:44.765Z,46.81
2018-03-16T21:23:15.012Z,46.83
2018-03-16T21:25:44.529Z,46.34
2018-03-16T21:28:13.571Z,46.71
2018-03-16T21:30:47.782Z,46.48
2018-03-16T21:33:23.190Z,46.03
2018-03-16T21:35:52.345Z,46.12
2018-03-16T21:38:21.925Z,45.61
2018-03-16T21:40:51.938Z,45.79
2018-03-16T21:43:20.970Z,46.08
2018-03-16T21:45:50.088Z,44.73
2018-03-16T21:48:19.130Z,45.47
2018-03-16T21:50:48.236Z,45.51
2018-03-16T21:53:18.068Z,45.77
2018-03-16T21:55:48.930Z,45.32
2018-03-16T21:58:17.984Z,45.98
2018-03-16T22:00:47.467Z,45.85
2018-03-16T22:03:17.475Z,46.34
2018-03-16T22:05:46.771Z,46.65
2018-03-16T22:08:15.809Z,47.21
2018-03-16T22:10:45.312Z,47.72
2018-03-16T22:13:17.730Z,47.82
2018-03-16T22:15:47.490Z,48.24
2018-03-16T22:18:16.568Z,48.86
2018-03-16T22:20:45.783Z,49.17
2018-03-16T22:23:15.246Z,48.32
2018-03-16T22:25:44.480Z,48.56
2018-03-16T22:28:13.517Z,48.06
2018-03-16T22:30:42.546Z,48.33
2018-03-16T22:33:12.490Z,48.52
2018-03-16T22:35:42.158Z,49.12
2018-03-16T22:38:11.602Z,48.62
2018-03-16T22:40:40.703Z,47.80
2018-03-16T22:43:10.001Z,47.86
2018-03-16T22:45:39.532Z,47.55
2018-03-16T22:48:08.574Z,47.01
2018-03-16T22:50:37.710Z,47.23
2018-03-16T22:53:06.749Z,46.63
2018-03-16T22:55:35.852Z,47.24
2018-03-16T22:58:05.430Z,47.05
2018-03-16T23:00:34.811Z,47.12
2018-03-16T23:03:05.228Z,46.71
2018-03-16T23:05:34.620Z,46.79
2018-03-16T23:08:03.814Z,47.02
2018-03-16T23:10:34.346Z,46.70
2018-03-16T23:13:03.504Z,46.26
2018-03-16T23:15:32.760Z,46.79
2018-03-16T23:18:01.864Z,46.89
2018-03-16T23:20:30.910Z,47.10
2018-03-16T23:23:01.191Z,47.63
2018-03-16T23:25:30.596Z,48.23
2018-03-16T23:28:00.106Z,48.39
2018-03-16T23:30:29.507Z,48.36
2018-03-16T23:32:58.852Z,48.06
2018-03-16T23:35:27.906Z,48.93
2018-03-16T23:37:56.941Z,48.84
2018-03-16T23:40:25.994Z,48.46
2018-03-16T23:42:55.031Z,48.20
2018-03-16T23:45:24.063Z,47.69
2018-03-16T23:47:53.128Z,47.99
2018-03-16T23:50:22.183Z,47.57
2018-03-16T23:52:51.287Z,47.56
2018-03-16T23:55:20.433Z,48.10
2018-03-16T23:57:49.609Z,48.40
